createdAt,value
2022-10-18T03:54:18.884Z,17.62
2022-10-18T03:57:21.871Z,18.30
2022-10-18T04:00:24.502Z,22.08
2022-10-18T04:03:27.380Z,19.23
2022-10-18T04:06:29.840Z,19.27
2022-10-18T04:09:32.645Z,15.32
2022-10-18T04:12:35.120Z,18.80
2022-10-18T04:15:37.872Z,20.70
2022-10-18T04:18:40.317Z,24.67
2022-10-18T04:21:43.168Z,22.37
2022-10-18T04:24:45.661Z,20.20
2022-10-18T04:27:48.360Z,22.77
2022-10-18T04:30:54.229Z,21.87
2022-10-18T04:33:57.000Z,22.23
2022-10-18T04:36:59.533Z,19.92
2022-10-18T04:40:02.371Z,26.37
2022-10-18T04:43:04.778Z,22.35
2022-10-18T04:46:07.577Z,24.10
2022-10-18T04:49:10.088Z,24.95
2022-10-18T04:52:13.452Z,24.40
2022-10-18T04:55:15.983Z,22.15
2022-10-18T04:58:19.825Z,27.55
2022-10-18T05:01:22.363Z,21.35
2022-10-18T05:04:25.202Z,21.40
2022-10-18T05:07:27.634Z,21.02
2022-10-18T05:10:32.707Z,19.50
2022-10-18T05:13:35.122Z,21.10
2022-10-18T05:16:37.779Z,18.65
2022-10-18T05:19:40.770Z,18.58
2022-10-18T05:22:43.569Z,18.62
2022-10-18T05:25:46.337Z,21.30
2022-10-18T05:28:50.590Z,22.35
2022-10-18T05:31:53.160Z,26.75
2022-10-18T05:34:55.896Z,24.95
2022-10-18T05:37:58.391Z,27.00
2022-10-18T05:41:04.548Z,19.52
2022-10-18T05:44:07.329Z,20.83
2022-10-18T05:47:10.055Z,18.17
2022-10-18T05:50:12.683Z,18.37
2022-10-18T05:53:35.743Z,21.42
2022-10-18T05:59:47.195Z,20.45
2022-10-18T06:02:49.784Z,21.70
2022-10-18T06:05:52.589Z,21.62
2022-10-18T06:08:55.298Z,19.80
2022-10-18T06:11:58.073Z,21.37
2022-10-18T06:15:00.642Z,16.08
2022-10-18T06:18:03.403Z,17.55
2022-10-18T06:21:06.123Z,17.62
2022-10-18T06:24:08.922Z,18.45
2022-10-18T06:27:11.457Z,16.45
2022-10-18T06:30:15.628Z,18.27
2022-10-18T06:33:18.106Z,23.10
2022-10-18T06:36:24.087Z,16.48
2022-10-18T06:39:26.816Z,24.23
2022-10-18T06:42:32.236Z,20.23
2022-10-18T06:45:34.967Z,16.62
2022-10-18T06:48:38.937Z,17.23
2022-10-18T06:51:44.730Z,19.37
2022-10-18T06:54:47.470Z,19.08
2022-10-18T06:57:49.985Z,20.25
2022-10-18T07:00:52.765Z,19.08
2022-10-18T07:03:56.037Z,20.17
2022-10-18T07:06:58.834Z,21.48
2022-10-18T07:10:01.244Z,20.50
2022-10-18T07:13:27.270Z,21.33
2022-10-18T07:16:26.642Z,18.95
2022-10-18T07:19:29.412Z,24.58
2022-10-18T07:22:31.837Z,21.75
2022-10-18T07:25:35.397Z,22.70
2022-10-18T07:28:37.869Z,20.73
2022-10-18T07:31:41.038Z,28.80
2022-10-18T07:34:43.613Z,30.10
2022-10-18T07:37:46.345Z,29.83
2022-10-18T07:40:48.998Z,25.00
2022-10-18T07:43:52.927Z,21.08
2022-10-18T07:46:55.428Z,26.83
2022-10-18T07:50:02.409Z,26.65
2022-10-18T07:53:04.908Z,31.08
2022-10-18T07:56:15.869Z,29.87
2022-10-18T07:59:18.390Z,25.27
2022-10-18T08:02:21.100Z,19.35
2022-10-18T08:05:24.746Z,18.70
2022-10-18T08:08:27.935Z,21.48
2022-10-18T08:11:30.689Z,24.95
2022-10-18T08:14:33.177Z,21.02
2022-10-18T08:17:35.942Z,19.15
2022-10-18T08:20:43.752Z,20.08
2022-10-18T08:23:47.511Z,19.62
2022-10-18T08:26:50.538Z,21.27
2022-10-18T08:29:53.374Z,21.48
2022-10-18T08:32:55.867Z,17.33
2022-10-18T08:36:00.828Z,21.00
2022-10-18T08:39:03.706Z,19.73
2022-10-18T08:42:39.803Z,20.90
2022-10-18T08:45:44.251Z,18.33
2022-10-18T08:48:54.124Z,19.60
2022-10-18T08:51:58.128Z,20.98
2022-10-18T08:55:17.286Z,18.83
2022-10-18T08:58:21.521Z,19.50
2022-10-18T09:01:24.230Z,16.70
2022-10-18T09:04:49.238Z,13.62
2022-10-18T09:08:11.540Z,10.65
2022-10-18T09:11:35.752Z,10.10
2022-10-18T09:14:47.240Z,10.55
2022-10-18T09:18:10.539Z,11.50
2022-10-18T09:21:22.777Z,9.10
2022-10-18T09:24:43.244Z,9.48
2022-10-18T09:27:55.186Z,10.77
2022-10-18T09:31:18.930Z,9.70
2022-10-18T09:34:50.678Z,9.82
2022-10-18T09:38:00.533Z,12.37
2022-10-18T09:41:13.703Z,10.30
2022-10-18T09:44:22.505Z,11.07
2022-10-18T09:47:44.754Z,7.53
2022-10-18T09:50:54.821Z,8.55
2022-10-18T09:54:19.277Z,14.10
2022-10-18T09:57:37.610Z,8.38
2022-10-18T10:00:48.387Z,10.93
2022-10-18T10:03:51.980Z,8.65
2022-10-18T10:06:56.694Z,9.30
2022-10-18T10:10:08.474Z,9.32
2022-10-18T10:13:26.303Z,10.40
2022-10-18T10:16:29.179Z,7.87
2022-10-18T10:19:38.301Z,7.30
2022-10-18T10:22:42.514Z,9.75
2022-10-18T10:25:51.814Z,7.80
2022-10-18T10:28:57.527Z,7.50
2022-10-18T10:32:04.289Z,11.05
2022-10-18T10:35:41.297Z,6.80
2022-10-18T10:39:16.162Z,9.60
2022-10-18T10:42:19.188Z,7.00
2022-10-18T10:45:23.696Z,7.50
2022-10-18T10:48:33.001Z,6.12
2022-10-18T10:51:38.978Z,5.80
2022-10-18T10:54:50.394Z,6.75
2022-10-18T10:57:56.303Z,6.70
2022-10-18T11:01:18.423Z,6.05
2022-10-18T11:04:31.939Z,6.53
2022-10-18T11:07:44.205Z,7.15
2022-10-18T11:11:13.714Z,6.18
2022-10-18T11:14:26.590Z,4.78
2022-10-18T11:17:59.829Z,7.10
2022-10-18T11:21:15.943Z,6.18
2022-10-18T11:24:18.613Z,8.70
2022-10-18T11:27:43.090Z,6.43
2022-10-18T11:30:50.199Z,7.68
2022-10-18T11:34:20.968Z,6.18
2022-10-18T11:37:48.523Z,5.25
2022-10-18T11:41:30.550Z,7.62
2022-10-18T11:44:50.071Z,5.37
2022-10-18T11:48:13.505Z,6.78
2022-10-18T11:51:29.766Z,8.05
2022-10-18T11:55:03.294Z,6.07
2022-10-18T11:58:31.577Z,5.62
2022-10-18T12:02:11.844Z,7.05
2022-10-18T12:05:23.989Z,4.85
2022-10-18T12:08:31.636Z,4.90
2022-10-18T12:11:47.186Z,6.37
2022-10-18T12:14:50.200Z,6.05
2022-10-18T12:18:01.978Z,4.35
2022-10-18T12:21:06.451Z,6.40
2022-10-18T12:24:16.093Z,8.98
2022-10-18T12:27:23.640Z,6.45
2022-10-18T12:30:47.271Z,4.32
2022-10-18T12:33:55.581Z,4.12
2022-10-18T12:37:17.152Z,6.95
2022-10-18T12:40:25.904Z,5.53
2022-10-18T12:43:36.854Z,5.90
2022-10-18T12:47:00.030Z,5.53
2022-10-18T12:50:08.432Z,6.22
2022-10-18T12:53:19.031Z,5.35
2022-10-18T12:56:27.776Z,5.37
2022-10-18T13:02:33.393Z,7.50
2022-10-18T13:06:06.477Z,5.35
2022-10-18T13:09:17.234Z,5.97
2022-10-18T13:12:19.763Z,4.57
2022-10-18T13:15:52.579Z,7.60
2022-10-18T13:19:08.852Z,6.15
2022-10-18T13:22:30.670Z,6.15
2022-10-18T13:25:49.872Z,7.68
2022-10-18T13:29:28.274Z,6.30
2022-10-18T13:32:47.172Z,7.47
2022-10-18T13:35:57.209Z,5.35
2022-10-18T13:39:03.334Z,7.72
2022-10-18T13:42:15.344Z,4.15
2022-10-18T13:45:33.145Z,4.55
2022-10-18T13:48:35.932Z,8.45
2022-10-18T13:51:46.554Z,4.12
2022-10-18T13:55:13.933Z,4.95
2022-10-18T13:59:13.090Z,6.47
2022-10-18T14:02:51.718Z,3.62
2022-10-18T14:06:02.962Z,6.30
2022-10-18T14:09:25.562Z,4.20
2022-10-18T14:12:44.360Z,10.25
2022-10-18T14:15:52.033Z,5.10
2022-10-18T14:22:21.015Z,4.47
2022-10-18T14:25:30.781Z,6.53
2022-10-18T14:28:55.155Z,4.90
2022-10-18T14:31:58.062Z,5.85
2022-10-18T14:35:27.567Z,5.93
2022-10-18T14:38:24.504Z,10.90
2022-10-18T14:41:32.933Z,5.07
2022-10-18T14:44:35.817Z,5.05
2022-10-18T14:47:39.761Z,5.43
2022-10-18T14:50:46.061Z,6.93
2022-10-18T14:53:49.317Z,5.55
2022-10-18T14:56:52.602Z,8.48
2022-10-18T15:00:03.169Z,7.37
2022-10-18T15:03:11.245Z,6.57
2022-10-18T15:06:20.524Z,6.90
2022-10-18T15:09:24.405Z,6.75
2022-10-18T15:12:33.994Z,5.95
2022-10-18T15:15:49.823Z,6.55
2022-10-18T15:19:15.143Z,5.70
2022-10-18T15:22:32.132Z,4.50
2022-10-18T15:25:35.959Z,4.47
2022-10-18T15:28:52.522Z,7.80
2022-10-18T15:31:55.271Z,8.05
2022-10-18T15:35:20.986Z,10.07
2022-10-18T15:38:31.889Z,6.65
2022-10-18T15:41:43.049Z,7.13
2022-10-18T15:44:51.251Z,5.50
2022-10-18T15:48:01.341Z,6.47
2022-10-18T15:51:28.253Z,8.00
2022-10-18T15:54:31.140Z,8.85
